Time;durP1;ratioP1;P1;durP2;ratioP2;P2;SDS_P1;SDS_P2;PMS_P1;PMS_P2;Temp;Humidity;BMP_temperature;BMP_pressure;BME280_temperature;BME280_humidity;BME280_pressure;Samples;Min_cycle;Max_cycle;Signal;HPM_P1;HPM_P2
2022/11/26 00:00:35;;;;;;;19.95;6.28;;;;;;;4.84;70.07;100884.44;10345678;28;20057;-69
2022/11/26 00:05:37;;;;;;;19.67;5.60;;;;;;;4.89;70.17;100886.94;10360189;28;20049;-71
2022/11/26 00:10:39;;;;;;;20.85;6.55;;;;;;;4.98;70.06;100895.38;10352038;28;20333;-71
2022/11/26 00:15:41;;;;;;;21.40;7.40;;;;;;;5.16;70.11;100899.31;10369471;28;20414;-70
2022/11/26 00:20:44;;;;;;;23.60;7.63;;;;;;;5.32;69.98;100913.63;10359190;28;20053;-70
2022/11/26 00:25:49;;;;;;;28.05;8.25;;;;;;;5.39;69.76;100913.44;10364997;28;20400;-70
2022/11/26 00:30:52;;;;;;;24.33;7.10;;;;;;;5.32;69.34;100916.22;10362684;28;20049;-70
2022/11/26 00:36:01;;;;;;;17.77;6.53;;;;;;;5.26;69.41;100921.53;10359655;28;20046;-71
2022/11/26 00:41:02;;;;;;;15.63;5.15;;;;;;;5.14;69.64;100922.69;10356940;28;20058;-71
2022/11/26 00:46:04;;;;;;;18.00;5.60;;;;;;;5.25;69.77;100928.47;10359830;28;20138;-70
2022/11/26 00:51:13;;;;;;;18.90;6.93;;;;;;;5.30;69.77;100938.75;10355931;28;20053;-70
2022/11/26 00:56:17;;;;;;;24.92;6.50;;;;;;;5.42;69.58;100935.88;10362514;28;20049;-70
2022/11/26 01:01:22;;;;;;;18.48;7.13;;;;;;;5.36;69.27;100948.97;10357261;28;20474;-70
2022/11/26 01:06:30;;;;;;;19.20;6.20;;;;;;;5.11;69.42;100953.84;10346280;28;20060;-70
2022/11/26 01:11:32;;;;;;;20.10;5.72;;;;;;;5.23;69.65;100963.09;10364181;28;20053;-70
2022/11/26 01:16:35;;;;;;;18.95;5.15;;;;;;;5.18;69.40;100971.00;10362609;28;20065;-70
2022/11/26 01:21:37;;;;;;;22.23;6.57;;;;;;;4.91;69.69;100981.06;10354480;28;20076;-69
2022/11/26 01:26:42;;;;;;;21.02;6.97;;;;;;;4.66;69.94;100993.63;10345131;28;20046;-71
2022/11/26 01:31:45;;;;;;;21.60;6.45;;;;;;;4.57;70.36;100997.28;10345712;28;20050;-71
2022/11/26 01:36:46;;;;;;;22.00;7.03;;;;;;;4.51;70.32;101002.56;10345693;28;20041;-69
2022/11/26 01:41:55;;;;;;;23.75;7.68;;;;;;;4.37;69.99;101007.13;10344778;28;20049;-69
2022/11/26 01:46:58;;;;;;;18.17;6.10;;;;;;;4.20;70.51;101019.50;10358163;28;20042;-70
2022/11/26 01:52:18;;;;;;;22.20;8.43;;;;;;;4.13;70.73;101024.81;10357090;28;20410;-70
2022/11/26 01:57:23;;;;;;;21.02;7.78;;;;;;;4.00;70.89;101034.50;10347936;28;20054;-71
2022/11/26 02:02:27;;;;;;;18.35;7.13;;;;;;;4.03;71.20;101038.78;10346255;28;20410;-69
2022/11/26 02:07:31;;;;;;;22.17;6.88;;;;;;;4.02;70.68;101047.41;10357161;28;20133;-71
2022/11/26 02:12:33;;;;;;;24.33;6.50;;;;;;;4.01;71.15;101035.34;10362926;28;20050;-69
2022/11/26 02:17:52;;;;;;;24.98;6.50;;;;;;;4.05;71.09;101048.22;10351220;28;20053;-70
2022/11/26 02:23:14;;;;;;;19.17;6.43;;;;;;;4.03;71.07;101055.16;10360198;28;20053;-69
2022/11/26 02:28:27;;;;;;;15.93;5.97;;;;;;;4.01;71.10;101062.09;10341534;28;20490;-69
2022/11/26 02:33:39;;;;;;;31.58;7.03;;;;;;;3.97;71.05;101069.91;10341030;28;20046;-70
2022/11/26 02:38:40;;;;;;;17.17;6.00;;;;;;;4.06;71.18;101070.66;10350470;28;20053;-69
2022/11/26 02:43:42;;;;;;;24.08;6.35;;;;;;;4.15;71.14;101080.84;10345668;28;20495;-71
2022/11/26 02:48:50;;;;;;;27.85;7.97;;;;;;;4.14;70.92;101078.28;10363225;28;20053;-70
2022/11/26 02:53:53;;;;;;;24.95;7.60;;;;;;;4.00;70.62;101083.69;10353042;28;20053;-71
2022/11/26 02:58:56;;;;;;;451.27;18.38;;;;;;;3.78;70.58;101069.31;10367290;28;20433;-69
2022/11/26 03:04:03;;;;;;;19.63;6.93;;;;;;;3.52;70.87;101079.13;10352609;28;20062;-71
2022/11/26 03:09:05;;;;;;;24.63;7.85;;;;;;;3.41;70.82;101086.19;10377309;28;20061;-70
2022/11/26 03:14:06;;;;;;;14.57;5.68;;;;;;;3.40;70.78;101074.13;10364451;28;20319;-71
2022/11/26 03:19:08;;;;;;;17.08;5.43;;;;;;;3.45;70.98;101075.78;10358995;28;20050;-69
2022/11/26 03:24:09;;;;;;;20.90;6.07;;;;;;;3.51;70.91;101080.03;10359180;28;20053;-70
2022/11/26 03:29:11;;;;;;;55.40;8.85;;;;;;;3.52;70.85;101066.19;10355307;28;20486;-69
2022/11/26 03:34:13;;;;;;;664.13;17.48;;;;;;;3.36;70.30;101067.28;10366232;28;20070;-69
2022/11/26 03:39:15;;;;;;;836.33;21.10;;;;;;;3.06;70.42;101076.25;10361394;28;20054;-70
2022/11/26 03:44:16;;;;;;;577.72;17.45;;;;;;;2.74;70.68;101068.00;10369391;28;20060;-71
2022/11/26 03:49:18;;;;;;;360.95;11.55;;;;;;;2.70;70.87;101074.88;10357675;28;20049;-69
2022/11/26 03:54:19;;;;;;;274.30;10.43;;;;;;;2.62;71.04;101081.84;10356570;28;20054;-69
2022/11/26 03:59:21;;;;;;;195.75;9.68;;;;;;;2.61;71.06;101082.75;10371192;28;20046;-69
2022/11/26 04:04:23;;;;;;;102.22;7.85;;;;;;;2.61;70.96;101092.22;10359551;28;20421;-70
2022/11/26 04:09:24;;;;;;;206.45;9.48;;;;;;;2.57;70.60;101086.22;10363611;28;20058;-69
2022/11/26 04:14:26;;;;;;;498.20;16.67;;;;;;;2.40;70.75;101080.34;10355832;28;20049;-70
2022/11/26 04:19:29;;;;;;;388.85;12.23;;;;;;;2.29;70.79;101086.47;10362894;28;20057;-69
2022/11/26 04:24:30;;;;;;;137.32;7.15;;;;;;;2.21;70.94;101102.00;10353141;28;20383;-69
2022/11/26 04:29:32;;;;;;;271.40;10.73;;;;;;;2.24;70.75;101112.31;10353330;28;20049;-70
2022/11/26 04:34:34;;;;;;;388.60;12.73;;;;;;;2.09;70.58;101115.00;10359868;28;20045;-69
2022/11/26 04:39:35;;;;;;;410.05;13.43;;;;;;;1.97;70.75;101123.66;10361448;28;20497;-69
2022/11/26 04:44:37;;;;;;;212.93;9.35;;;;;;;1.93;71.04;101116.81;10351705;28;20418;-70
2022/11/26 04:49:39;;;;;;;274.98;9.55;;;;;;;1.98;70.85;101127.09;10346813;28;20594;-69
2022/11/26 04:54:41;;;;;;;153.82;8.88;;;;;;;2.01;70.60;101145.16;10352674;28;20041;-69
2022/11/26 04:59:42;;;;;;;387.77;12.68;;;;;;;1.94;70.51;101158.94;10352778;28;20092;-69
2022/11/26 05:04:44;;;;;;;138.38;8.40;;;;;;;1.90;70.74;101159.81;10365784;28;20046;-69
2022/11/26 05:09:45;;;;;;;241.30;9.52;;;;;;;1.88;70.45;101177.03;10364814;28;20076;-67
2022/11/26 05:14:47;;;;;;;349.02;11.57;;;;;;;1.78;70.45;101180.50;10364293;28;20049;-68
2022/11/26 05:19:49;;;;;;;453.48;14.50;;;;;;;1.70;70.57;101190.00;10363352;28;20057;-68
2022/11/26 05:24:50;;;;;;;318.55;11.45;;;;;;;1.61;70.49;101190.03;10355396;28;20145;-68
2022/11/26 05:29:52;;;;;;;12.77;4.53;;;;;;;1.69;70.60;101196.00;10372382;28;20474;-68
2022/11/26 05:34:53;;;;;;;116.72;7.60;;;;;;;1.74;70.42;101196.88;10359932;28;20049;-68
2022/11/26 05:40:01;;;;;;;176.45;7.50;;;;;;;1.71;70.14;101202.03;10341475;28;20069;-68
2022/11/26 05:45:03;;;;;;;371.23;10.35;;;;;;;1.48;70.50;101206.41;10347057;28;20292;-69
2022/11/26 05:50:05;;;;;;;483.85;13.20;;;;;;;1.38;70.72;101208.13;10344903;28;20498;-68
2022/11/26 05:55:08;;;;;;;543.03;16.23;;;;;;;1.49;70.67;101218.41;10360316;28;20084;-70
2022/11/26 06:00:10;;;;;;;380.95;11.45;;;;;;;1.42;70.92;101227.06;10341150;28;20061;-69
2022/11/26 06:05:12;;;;;;;406.98;12.60;;;;;;;1.36;70.74;101226.19;10358361;28;20045;-69
2022/11/26 06:10:14;;;;;;;435.83;13.57;;;;;;;1.40;70.64;101221.88;10357074;28;20405;-69
2022/11/26 06:15:16;;;;;;;586.55;16.67;;;;;;;1.34;70.63;101219.31;10354952;28;20445;-68
2022/11/26 06:20:17;;;;;;;427.17;13.20;;;;;;;1.24;70.55;101244.25;10352486;28;20057;-68
2022/11/26 06:25:19;;;;;;;499.45;15.63;;;;;;;1.17;70.96;101233.97;10352382;28;20073;-68
2022/11/26 06:30:21;;;;;;;431.70;14.13;;;;;;;1.19;70.89;101235.69;10358723;28;20096;-69
2022/11/26 06:35:22;;;;;;;360.13;10.93;;;;;;;1.12;70.43;101240.81;10354577;28;20046;-69
2022/11/26 06:40:24;;;;;;;66.47;6.53;;;;;;;1.10;70.63;101255.41;10352344;28;20060;-69
2022/11/26 06:45:26;;;;;;;27.95;5.28;;;;;;;1.17;70.78;101273.47;10360341;28;20057;-70
2022/11/26 06:50:28;;;;;;;645.17;25.33;;;;;;;1.03;70.63;101288.06;10358857;28;20050;-69
2022/11/26 06:55:29;;;;;;;784.78;23.30;;;;;;;1.01;70.73;101291.50;10351825;28;20054;-69
2022/11/26 07:00:31;;;;;;;541.72;18.30;;;;;;;1.06;70.93;101282.03;10347739;28;20433;-70
2022/11/26 07:05:34;;;;;;;186.98;9.13;;;;;;;1.35;71.07;101306.97;10347799;28;20053;-70
2022/11/26 07:10:36;;;;;;;73.60;7.57;;;;;;;1.68;70.66;101313.81;10355410;28;20050;-70
2022/11/26 07:15:38;;;;;;;188.70;13.60;;;;;;;1.99;71.02;101317.16;10351163;28;20049;-71
2022/11/26 07:20:40;;;;;;;295.30;15.15;;;;;;;2.26;70.96;101321.34;10343109;28;20053;-72
2022/11/26 07:25:41;;;;;;;149.15;12.98;;;;;;;2.46;70.63;101319.56;10345457;28;20049;-72
2022/11/26 07:30:43;;;;;;;137.10;14.23;;;;;;;2.66;70.83;101334.06;10345176;28;20049;-71
2022/11/26 07:35:45;;;;;;;33.17;11.30;;;;;;;2.84;70.87;101327.97;10360102;28;20054;-70
2022/11/26 07:40:46;;;;;;;23.33;11.25;;;;;;;3.04;70.82;101332.13;10350576;28;20309;-71
2022/11/26 07:45:48;;;;;;;24.98;12.75;;;;;;;3.24;70.84;101334.56;10349054;28;20050;-71
2022/11/26 07:50:50;;;;;;;24.40;11.15;;;;;;;3.41;70.47;101335.31;10358249;28;20050;-70
2022/11/26 07:55:51;;;;;;;20.30;10.55;;;;;;;3.58;70.47;101329.94;10362004;28;20517;-70
2022/11/26 08:00:53;;;;;;;33.22;12.02;;;;;;;3.76;70.58;101319.47;10362608;28;20054;-70
2022/11/26 08:05:55;;;;;;;17.30;9.75;;;;;;;4.02;70.23;101335.59;10348878;28;20057;-72
2022/11/26 08:10:57;;;;;;;24.02;9.60;;;;;;;4.24;69.91;101334.47;10361306;28;20311;-71
2022/11/26 08:15:58;;;;;;;23.23;10.90;;;;;;;4.34;69.84;101346.44;10355849;28;20058;-71
2022/11/26 08:21:01;;;;;;;21.67;11.77;;;;;;;4.40;69.92;101354.13;10345398;28;20063;-71
2022/11/26 08:26:07;;;;;;;24.13;11.15;;;;;;;4.56;69.91;101359.97;10355134;28;20045;-71
2022/11/26 08:31:29;;;;;;;26.70;11.90;;;;;;;4.59;69.79;101373.78;10354876;28;20052;-71
2022/11/26 08:36:31;;;;;;;29.80;15.88;;;;;;;4.81;69.59;101376.94;10351124;28;20049;-71
2022/11/26 08:41:33;;;;;;;28.25;12.60;;;;;;;4.99;69.37;101378.41;10360657;28;20132;-71
2022/11/26 08:46:36;;;;;;;23.23;10.52;;;;;;;5.11;69.08;101392.06;10353209;28;20057;-71
2022/11/26 08:51:38;;;;;;;26.55;12.27;;;;;;;5.21;69.05;101395.38;10351365;28;20406;-71
2022/11/26 08:56:40;;;;;;;21.92;10.43;;;;;;;5.32;68.91;101388.31;10355866;28;20049;-70
2022/11/26 09:01:41;;;;;;;20.90;10.15;;;;;;;5.45;68.75;101390.66;10351059;28;20734;-71
2022/11/26 09:06:43;;;;;;;21.45;9.35;;;;;;;5.72;68.41;101380.72;10346372;28;20141;-70
2022/11/26 09:11:49;;;;;;;22.63;10.27;;;;;;;5.94;68.20;101382.91;10346437;28;20041;-70
2022/11/26 09:16:52;;;;;;;20.35;12.73;;;;;;;6.02;67.75;101388.84;10377609;28;20046;-70
2022/11/26 09:21:54;;;;;;;19.95;11.65;;;;;;;5.94;67.75;101395.91;10356711;28;20558;-73
2022/11/26 09:26:56;;;;;;;18.73;10.65;;;;;;;5.86;67.74;101390.00;10355985;28;20060;-72
2022/11/26 09:32:03;;;;;;;16.20;8.23;;;;;;;5.85;68.23;101392.63;10348575;28;20176;-72
2022/11/26 09:37:25;;;;;;;21.02;12.88;;;;;;;6.10;67.71;101384.34;10346317;28;20041;-72
2022/11/26 09:43:11;;;;;;;23.25;11.85;;;;;;;6.13;67.36;101383.44;10348832;28;20489;-73
2022/11/26 09:48:21;;;;;;;22.52;11.10;;;;;;;6.31;68.12;101389.19;10364108;28;20387;-72
2022/11/26 09:53:26;;;;;;;26.03;13.73;;;;;;;6.56;67.86;101381.78;10348072;28;20058;-72
2022/11/26 09:58:28;;;;;;;17.98;11.30;;;;;;;6.53;67.41;101391.38;10355808;28;20478;-73
2022/11/26 10:03:32;;;;;;;26.35;13.43;;;;;;;6.48;67.98;101388.88;10346885;28;20050;-73
2022/11/26 10:09:12;;;;;;;18.17;7.95;;;;;;;6.49;67.84;101390.56;10370046;28;20065;-72
2022/11/26 10:14:51;;;;;;;15.20;7.25;;;;;;;6.61;66.95;101385.16;10365249;28;20052;-72
2022/11/26 10:20:24;;;;;;;16.73;6.57;;;;;;;6.84;67.60;101382.03;10368999;28;20255;-72
2022/11/26 10:25:32;;;;;;;20.80;7.40;;;;;;;6.98;67.45;101374.78;10354394;28;20046;-73
2022/11/26 10:30:33;;;;;;;22.75;7.10;;;;;;;6.92;67.10;101391.38;10337824;28;20473;-73
2022/11/26 10:35:40;;;;;;;13.88;6.07;;;;;;;6.74;67.16;101390.91;10350800;28;20054;-73
2022/11/26 10:40:41;;;;;;;14.68;5.20;;;;;;;6.83;66.72;101395.94;10358041;28;20782;-72
2022/11/26 10:45:51;;;;;;;15.35;6.30;;;;;;;6.81;66.32;101397.72;10364633;28;20049;-72
2022/11/26 10:51:32;;;;;;;14.00;6.10;;;;;;;6.71;66.38;101391.88;10342751;28;20470;-71
2022/11/26 10:56:42;;;;;;;15.23;6.82;;;;;;;6.96;66.31;101379.16;10284644;28;20682;-72
2022/11/26 11:01:45;;;;;;;15.00;5.28;;;;;;;7.18;65.97;101362.22;10370849;28;20061;-72
2022/11/26 11:06:53;;;;;;;18.50;6.18;;;;;;;7.32;65.60;101370.56;10342515;28;20331;-73
2022/11/26 11:12:10;;;;;;;14.43;5.40;;;;;;;7.53;64.96;101367.41;10354925;28;20048;-73
2022/11/26 11:17:38;;;;;;;18.98;6.47;;;;;;;7.63;64.32;101361.09;10354472;28;20286;-72
2022/11/26 11:22:44;;;;;;;17.38;6.00;;;;;;;7.82;64.92;101362.34;10355673;28;20241;-71
2022/11/26 11:27:46;;;;;;;15.50;6.60;;;;;;;8.07;64.11;101366.91;10346985;28;20454;-72
2022/11/26 11:32:49;;;;;;;13.52;5.38;;;;;;;8.18;63.85;101370.13;10350699;28;20083;-72
2022/11/26 11:37:54;;;;;;;18.90;5.25;;;;;;;8.09;63.26;101365.97;10361020;28;20057;-72
2022/11/26 11:43:04;;;;;;;15.23;4.63;;;;;;;7.95;63.26;101365.47;10348966;28;20053;-72
2022/11/26 11:48:15;;;;;;;13.13;4.13;;;;;;;8.07;63.03;101357.34;10352743;28;20050;-72
2022/11/26 11:53:20;;;;;;;;;;;;;;;7.86;63.15;101358.75;10363275;28;20140;-72
2022/11/26 11:59:00;;;;;;;13.77;3.90;;;;;;;8.20;62.17;101356.13;10367970;28;20694;-72
2022/11/26 12:04:22;;;;;;;11.82;3.35;;;;;;;8.37;62.58;101363.47;10279187;28;20060;-72
2022/11/26 12:09:30;;;;;;;12.35;3.80;;;;;;;8.53;62.42;101360.41;10367084;28;20297;-73
2022/11/26 12:14:43;;;;;;;12.02;3.97;;;;;;;8.48;61.96;101364.06;10348160;28;20441;-72
2022/11/26 12:20:16;;;;;;;10.98;3.95;;;;;;;8.46;61.34;101371.06;10348981;28;20042;-72
2022/11/26 12:25:29;;;;;;;18.45;4.10;;;;;;;8.57;61.95;101363.78;10347195;28;20501;-72
2022/11/26 12:31:05;;;;;;;14.55;5.18;;;;;;;8.41;61.77;101352.06;10353793;28;20509;-72
2022/11/26 12:36:34;;;;;;;18.83;5.05;;;;;;;8.38;61.48;101354.78;10375199;28;20050;-71
2022/11/26 12:41:42;;;;;;;14.07;4.32;;;;;;;8.44;62.01;101352.00;10347176;28;20050;-72
2022/11/26 12:46:57;;;;;;;16.30;4.80;;;;;;;8.56;61.38;101346.44;10350332;28;20077;-72
2022/11/26 12:52:50;;;;;;;12.02;3.03;;;;;;;8.47;61.57;101349.28;10363840;28;20045;-72
2022/11/26 12:58:14;;;;;;;17.58;3.42;;;;;;;8.52;61.25;101345.69;10322059;28;20038;-70
2022/11/26 13:03:20;;;;;;;11.85;3.28;;;;;;;8.65;61.46;101351.34;10349431;28;20065;-71
2022/11/26 13:08:25;;;;;;;14.55;3.17;;;;;;;8.78;61.15;101345.75;10356277;28;20099;-71
2022/11/26 13:13:47;;;;;;;11.55;3.20;;;;;;;8.70;60.73;101339.91;10348803;28;20058;-71
2022/11/26 13:18:57;;;;;;;14.98;3.33;;;;;;;8.61;60.91;101334.09;10307937;28;20045;-72
2022/11/26 13:24:29;;;;;;;20.45;4.35;;;;;;;8.50;61.25;101329.22;10346848;28;20045;-72
2022/11/26 13:29:55;;;;;;;13.15;3.08;;;;;;;8.62;60.99;101325.38;10355111;28;20053;-72
2022/11/26 13:35:12;;;;;;;8.70;2.80;;;;;;;8.71;61.06;101325.09;10380871;28;20077;-73
2022/11/26 13:40:40;;;;;;;13.82;3.00;;;;;;;8.78;60.94;101326.63;10355999;28;20061;-72
2022/11/26 13:45:59;;;;;;;12.27;2.88;;;;;;;8.62;60.87;101322.78;10364274;28;20056;-72
2022/11/26 13:51:48;;;;;;;11.85;2.80;;;;;;;8.14;60.07;101332.84;10379401;28;20054;-71
2022/11/26 13:57:06;;;;;;;12.57;2.45;;;;;;;8.10;60.07;101343.38;10317033;28;20128;-72
2022/11/26 14:02:34;;;;;;;11.70;2.90;;;;;;;7.94;60.69;101338.56;10366272;28;20262;-72
2022/11/26 14:07:36;;;;;;;8.65;2.42;;;;;;;7.72;61.12;101350.44;10349531;28;20057;-72
2022/11/26 14:13:02;;;;;;;11.48;3.58;;;;;;;7.52;60.63;101342.28;10363259;28;20045;-72
2022/11/26 14:18:05;;;;;;;11.15;3.05;;;;;;;7.52;61.38;101351.84;10377079;28;20057;-72
2022/11/26 14:23:43;;;;;;;9.82;2.92;;;;;;;7.49;60.86;101357.97;10352275;28;20057;-72
2022/11/26 14:28:45;;;;;;;9.02;2.90;;;;;;;7.48;61.15;101356.28;10369481;28;20132;-72
2022/11/26 14:33:49;;;;;;;11.45;3.88;;;;;;;7.63;61.15;101347.22;10368019;28;20208;-71
2022/11/26 14:39:13;;;;;;;8.65;2.53;;;;;;;7.64;60.87;101330.69;10377843;28;20054;-71
2022/11/26 14:44:16;;;;;;;10.45;2.88;;;;;;;7.68;61.11;101327.13;10358394;28;20347;-72
2022/11/26 14:49:29;;;;;;;9.68;2.17;;;;;;;7.82;60.97;101325.88;10346717;28;20045;-72
2022/11/26 14:54:37;;;;;;;10.80;4.40;;;;;;;7.81;60.54;101323.31;10362664;28;20060;-72
2022/11/26 14:59:59;;;;;;;9.60;2.20;;;;;;;7.80;60.60;101316.38;10362358;28;20163;-72
2022/11/26 15:05:12;;;;;;;9.43;2.50;;;;;;;7.94;60.84;101317.72;10362227;28;20060;-71
2022/11/26 15:10:14;;;;;;;10.82;3.20;;;;;;;7.98;61.14;101315.88;10374819;28;20516;-72
2022/11/26 15:15:23;;;;;;;10.35;2.33;;;;;;;7.84;60.42;101308.47;10358393;28;20064;-71
2022/11/26 15:20:25;;;;;;;6.53;1.95;;;;;;;7.65;60.75;101309.00;10361057;28;20064;-72
2022/11/26 15:25:31;;;;;;;6.53;2.28;;;;;;;7.56;61.10;101317.03;10366902;28;21364;-71
2022/11/26 15:30:35;;;;;;;9.32;3.00;;;;;;;7.46;61.03;101315.56;10367924;28;20041;-72
2022/11/26 15:35:38;;;;;;;8.95;3.40;;;;;;;7.28;61.40;101310.81;10365296;28;20581;-71
2022/11/26 15:40:48;;;;;;;7.70;2.55;;;;;;;7.10;61.35;101301.69;10356391;28;20048;-70
2022/11/26 15:45:53;;;;;;;10.43;2.55;;;;;;;7.01;61.89;101299.31;10357347;28;20060;-70
2022/11/26 15:50:59;;;;;;;6.80;2.10;;;;;;;6.83;62.04;101285.00;10357531;28;20053;-70
2022/11/26 15:56:02;;;;;;;7.30;2.25;;;;;;;6.65;62.39;101284.56;10376747;28;20128;-71
2022/11/26 16:01:12;;;;;;;6.22;2.40;;;;;;;6.49;62.68;101296.16;10362283;28;20399;-70
2022/11/26 16:06:29;;;;;;;7.00;2.40;;;;;;;6.23;63.43;101305.31;10349333;28;20177;-71
2022/11/26 16:11:35;;;;;;;10.07;3.30;;;;;;;6.35;63.22;101302.50;10353503;28;20208;-71
2022/11/26 16:16:37;;;;;;;7.78;2.38;;;;;;;6.29;63.52;101300.03;10355150;28;20042;-71
2022/11/26 16:21:46;;;;;;;7.38;2.47;;;;;;;6.30;63.69;101300.91;10363860;28;20789;-71
2022/11/26 16:26:58;;;;;;;10.18;3.90;;;;;;;6.27;63.45;101296.59;10366259;28;20056;-66
2022/11/26 16:32:00;;;;;;;12.38;3.40;;;;;;;6.17;63.64;101302.84;10360894;28;20053;-66
2022/11/26 16:37:16;;;;;;;9.63;3.35;;;;;;;6.18;64.24;101298.50;10362981;28;20045;-67
2022/11/26 16:42:22;;;;;;;13.35;4.28;;;;;;;6.13;64.47;101314.19;10363488;28;20144;-66
2022/11/26 16:47:32;;;;;;;10.90;3.50;;;;;;;6.01;64.80;101316.16;10348031;28;20045;-66
2022/11/26 16:52:37;;;;;;;6.43;2.42;;;;;;;5.91;64.81;101320.69;10352352;28;20140;-66
2022/11/26 16:57:58;;;;;;;10.05;3.65;;;;;;;5.68;65.41;101327.16;10353222;28;20832;-66
2022/11/26 17:03:02;;;;;;;14.40;5.20;;;;;;;5.58;65.73;101316.09;10345985;28;20561;-66
2022/11/26 17:08:07;;;;;;;11.55;4.50;;;;;;;5.53;65.97;101326.53;10353316;28;20080;-66
2022/11/26 17:13:11;;;;;;;12.02;5.10;;;;;;;5.56;66.12;101320.44;10363066;28;20387;-66
2022/11/26 17:18:22;;;;;;;12.65;6.10;;;;;;;5.61;66.18;101318.63;10341609;28;20137;-67
2022/11/26 17:23:24;;;;;;;16.40;7.18;;;;;;;5.73;65.95;101318.41;10354586;28;20072;-66
2022/11/26 17:28:26;;;;;;;10.43;4.60;;;;;;;5.85;65.72;101314.72;10346893;28;20046;-66
2022/11/26 17:33:28;;;;;;;15.00;5.15;;;;;;;5.97;65.58;101322.28;10356782;28;20502;-67
2022/11/26 17:38:30;;;;;;;8.80;3.65;;;;;;;5.93;65.62;101328.44;10348757;28;20900;-65
2022/11/26 17:43:31;;;;;;;10.07;4.57;;;;;;;5.88;65.57;101336.28;10354555;28;20054;-66
2022/11/26 17:48:33;;;;;;;12.65;5.40;;;;;;;5.94;65.69;101328.41;10345719;28;20038;-66
2022/11/26 17:53:35;;;;;;;13.20;7.50;;;;;;;6.00;65.68;101333.47;10363409;28;20041;-66
2022/11/26 17:58:36;;;;;;;18.65;8.60;;;;;;;5.90;65.69;101334.53;10346173;28;20562;-66
2022/11/26 18:03:38;;;;;;;20.17;10.25;;;;;;;5.98;65.83;101332.63;10350711;28;20057;-66
2022/11/26 18:08:40;;;;;;;26.55;17.15;;;;;;;6.05;65.62;101323.88;10365094;28;20444;-67
2022/11/26 18:13:41;;;;;;;22.98;14.82;;;;;;;6.08;65.44;101326.38;10348313;28;20387;-66
2022/11/26 18:18:43;;;;;;;29.92;19.58;;;;;;;6.06;65.37;101325.56;10346670;28;20069;-66
2022/11/26 18:23:46;;;;;;;43.35;27.38;;;;;;;6.01;65.31;101318.75;10366670;28;20053;-67
2022/11/26 18:28:48;;;;;;;47.22;28.67;;;;;;;5.99;65.46;101310.13;10349290;28;20049;-66
2022/11/26 18:33:50;;;;;;;30.50;19.60;;;;;;;6.01;65.58;101297.97;10361564;28;20053;-67
2022/11/26 18:38:52;;;;;;;35.35;22.05;;;;;;;5.91;65.59;101301.63;10334102;28;20048;-66
2022/11/26 18:43:54;;;;;;;30.80;18.20;;;;;;;5.82;65.64;101297.47;10350035;28;20063;-66
2022/11/26 18:48:56;;;;;;;28.33;17.92;;;;;;;5.84;65.70;101307.84;10363917;28;20066;-67
2022/11/26 18:53:58;;;;;;;25.40;15.30;;;;;;;5.86;65.96;101313.88;10352471;28;20513;-66
2022/11/26 18:58:59;;;;;;;25.70;13.93;;;;;;;5.84;65.75;101316.47;10348514;28;20057;-66
2022/11/26 19:04:01;;;;;;;30.65;19.48;;;;;;;5.83;65.71;101311.31;10345168;28;20056;-66
2022/11/26 19:09:10;;;;;;;22.90;14.02;;;;;;;5.80;65.93;101294.03;10331552;28;20498;-67
2022/11/26 19:14:13;;;;;;;13.85;7.28;;;;;;;5.81;65.85;101277.59;10356949;28;20429;-66
2022/11/26 19:19:14;;;;;;;12.75;6.47;;;;;;;5.73;65.93;101268.25;10356845;28;20046;-66
2022/11/26 19:24:16;;;;;;;13.02;6.10;;;;;;;5.74;66.06;101281.19;10346213;28;20046;-67
2022/11/26 19:29:17;;;;;;;12.63;6.90;;;;;;;5.79;66.13;101281.09;10345414;28;20414;-66
2022/11/26 19:34:19;;;;;;;14.27;7.53;;;;;;;5.82;66.06;101274.09;10351240;28;20453;-66
2022/11/26 19:39:21;;;;;;;23.00;12.60;;;;;;;5.63;65.93;101280.53;10346582;28;20049;-66
2022/11/26 19:44:23;;;;;;;14.27;7.10;;;;;;;5.72;66.04;101285.53;10372451;28;20054;-65
2022/11/26 19:49:24;;;;;;;13.40;6.53;;;;;;;5.91;66.14;101280.88;10350668;28;20045;-66
2022/11/26 19:54:26;;;;;;;10.23;4.55;;;;;;;6.02;65.42;101290.16;10361665;28;20092;-65
2022/11/26 19:59:28;;;;;;;12.05;7.70;;;;;;;6.07;65.34;101282.28;10352151;28;20082;-65
2022/11/26 20:04:30;;;;;;;14.30;6.30;;;;;;;6.17;65.16;101273.41;10357509;28;20520;-66
2022/11/26 20:09:32;;;;;;;12.57;5.28;;;;;;;6.18;64.96;101272.53;10353318;28;20046;-66
2022/11/26 20:14:33;;;;;;;11.82;6.10;;;;;;;6.28;64.87;101269.75;10355461;28;20046;-66
2022/11/26 20:19:36;;;;;;;9.80;5.10;;;;;;;6.34;64.66;101276.56;10349350;28;20053;-66
2022/11/26 20:24:38;;;;;;;13.75;6.97;;;;;;;6.38;64.68;101277.34;10350357;28;20054;-67
2022/11/26 20:29:40;;;;;;;12.15;5.85;;;;;;;6.48;64.54;101273.66;10349070;28;20038;-66
2022/11/26 20:34:43;;;;;;;13.93;5.28;;;;;;;6.50;64.25;101277.94;10361825;28;20053;-66
2022/11/26 20:39:45;;;;;;;10.88;5.40;;;;;;;6.56;64.31;101279.53;10360286;28;20073;-66
2022/11/26 20:44:46;;;;;;;9.90;4.95;;;;;;;6.51;64.09;101278.81;10352347;28;20052;-66
2022/11/26 20:49:48;;;;;;;11.50;5.30;;;;;;;6.52;64.11;101290.88;10347323;28;20060;-65
2022/11/26 20:54:50;;;;;;;12.40;4.82;;;;;;;6.53;64.03;101297.81;10346029;28;20042;-66
2022/11/26 20:59:54;;;;;;;8.13;4.55;;;;;;;6.49;64.07;101306.56;10350206;28;20418;-66
2022/11/26 21:04:56;;;;;;;10.88;5.50;;;;;;;6.49;64.13;101302.19;10364404;28;20062;-66
2022/11/26 21:09:58;;;;;;;9.93;4.78;;;;;;;6.60;63.69;101294.19;10358669;28;20497;-65
2022/11/26 21:14:59;;;;;;;10.93;5.32;;;;;;;6.61;63.45;101283.78;10357734;28;20410;-65
2022/11/26 21:20:01;;;;;;;12.18;5.47;;;;;;;6.61;63.57;101295.91;10356680;28;20054;-66
2022/11/26 21:25:03;;;;;;;10.40;5.25;;;;;;;6.55;63.68;101296.88;10353003;28;20064;-65
2022/11/26 21:30:05;;;;;;;10.77;5.68;;;;;;;6.42;63.50;101292.84;10350639;28;20056;-65
2022/11/26 21:35:07;;;;;;;10.00;5.38;;;;;;;6.37;63.58;101291.22;10348919;28;20490;-66
2022/11/26 21:40:09;;;;;;;12.60;5.60;;;;;;;6.40;63.83;101292.00;10353463;28;20492;-66
2022/11/26 21:45:11;;;;;;;12.38;5.40;;;;;;;6.47;63.74;101293.59;10350850;28;20321;-65
2022/11/26 21:50:12;;;;;;;10.02;5.07;;;;;;;6.50;63.45;101282.28;10347565;28;20053;-65
2022/11/26 21:55:14;;;;;;;11.30;4.97;;;;;;;6.47;63.83;101279.75;10354275;28;20049;-65
2022/11/26 22:00:16;;;;;;;12.43;5.20;;;;;;;6.43;63.82;101275.50;10345672;28;20088;-66
2022/11/26 22:05:18;;;;;;;10.70;5.60;;;;;;;6.53;63.77;101274.44;10346313;28;20061;-65
2022/11/26 22:10:20;;;;;;;12.82;5.13;;;;;;;6.61;63.44;101269.91;10348795;28;20057;-65
2022/11/26 22:15:21;;;;;;;11.43;5.35;;;;;;;6.58;63.10;101277.75;10369674;28;20414;-65
2022/11/26 22:20:23;;;;;;;14.60;5.47;;;;;;;6.52;63.04;101273.56;10368638;28;20053;-66
2022/11/26 22:25:24;;;;;;;11.00;5.40;;;;;;;6.42;63.17;101269.44;10346719;28;20066;-66
2022/11/26 22:30:26;;;;;;;11.82;5.50;;;;;;;6.45;63.29;101258.97;10344658;28;20395;-66
2022/11/26 22:35:28;;;;;;;12.20;5.80;;;;;;;6.49;63.37;101255.41;10342686;28;20054;-66
2022/11/26 22:40:29;;;;;;;10.27;5.55;;;;;;;6.37;63.24;101260.88;10344973;28;20229;-66
2022/11/26 22:45:31;;;;;;;11.77;6.22;;;;;;;6.30;63.53;101246.34;10363665;28;20045;-65
2022/11/26 22:50:33;;;;;;;16.52;7.93;;;;;;;6.25;63.03;101228.25;10352667;28;20112;-67
2022/11/26 22:55:34;;;;;;;18.73;6.93;;;;;;;6.29;63.22;101224.69;10345211;28;20054;-67
2022/11/26 23:00:55;;;;;;;15.75;7.30;;;;;;;6.15;62.80;101228.44;10346589;28;20491;-67
2022/11/26 23:06:02;;;;;;;18.43;9.07;;;;;;;6.07;63.14;101226.00;10346082;28;20406;-67
2022/11/26 23:11:12;;;;;;;18.55;9.13;;;;;;;6.00;62.64;101206.22;10347240;28;20774;-67
2022/11/26 23:16:15;;;;;;;17.63;9.57;;;;;;;6.02;62.74;101199.25;10366402;28;20042;-66
2022/11/26 23:21:21;;;;;;;16.48;9.10;;;;;;;6.04;62.91;101199.25;10375574;28;20046;-66